Time;durP1;ratioP1;P1;durP2;ratioP2;P2;SDS_P1;SDS_P2;PMS_P1;PMS_P2;Temp;Humidity;BMP_temperature;BMP_pressure;BME280_temperature;BME280_humidity;BME280_pressure;Samples;Min_cycle;Max_cycle;Signal;HPM_P1;HPM_P2
2022/03/12 00:00:35;;;;;;;7.37;5.67;;;4.10;1.00;;;;;;5092367;28;20835;-62
2022/03/12 00:03:01;;;;;;;12.63;6.63;;;4.10;1.00;;;;;;5093281;28;20437;-69
2022/03/12 00:05:29;;;;;;;8.20;6.60;;;4.10;1.00;;;;;;5092905;28;20422;-69
2022/03/12 00:07:55;;;;;;;8.37;7.03;;;4.00;1.00;;;;;;5074503;28;20448;-62
2022/03/12 00:10:22;;;;;;;11.70;6.50;;;4.00;1.00;;;;;;5072379;28;20466;-68
2022/03/12 00:12:50;;;;;;;6.50;5.87;;;4.00;1.00;;;;;;5089742;28;20289;-63
2022/03/12 00:15:15;;;;;;;8.77;7.60;;;4.00;1.00;;;;;;5093608;28;20404;-69
2022/03/12 00:17:46;;;;;;;8.20;6.43;;;4.00;1.00;;;;;;5078087;28;20422;-69
2022/03/12 00:20:18;;;;;;;6.30;5.60;;;3.90;1.00;;;;;;5072397;28;20466;-63
2022/03/12 00:22:46;;;;;;;9.93;7.30;;;3.90;1.00;;;;;;5087048;28;20439;-69
2022/03/12 00:25:18;;;;;;;7.57;6.70;;;3.90;1.00;;;;;;5093390;28;20403;-69
2022/03/12 00:27:45;;;;;;;12.00;5.90;;;3.90;1.00;;;;;;5091268;28;20804;-62
2022/03/12 00:30:15;;;;;;;9.07;6.00;;;3.90;1.00;;;;;;5092562;28;20402;-63
2022/03/12 00:32:41;;;;;;;11.53;6.37;;;3.90;1.00;;;;;;5078472;28;20471;-68
2022/03/12 00:35:10;;;;;;;7.53;6.60;;;3.80;1.00;;;;;;5073251;28;20758;-69
2022/03/12 00:37:37;;;;;;;10.00;6.77;;;3.90;1.00;;;;;;5085865;28;20431;-69
2022/03/12 00:40:04;;;;;;;8.37;6.30;;;3.80;1.00;;;;;;5092243;28;20392;-69
2022/03/12 00:42:30;;;;;;;7.13;6.43;;;3.80;1.00;;;;;;5076670;28;20436;-63
2022/03/12 00:44:56;;;;;;;8.90;6.90;;;3.80;1.00;;;;;;5061504;28;20430;-63
2022/03/12 00:47:21;;;;;;;9.17;5.60;;;3.70;1.00;;;;;;5093247;28;20490;-69
2022/03/12 00:49:49;;;;;;;7.93;5.90;;;3.80;1.00;;;;;;5087327;28;20174;-62
2022/03/12 00:52:14;;;;;;;8.03;7.07;;;3.70;1.00;;;;;;5072751;28;20201;-63
2022/03/12 00:54:40;;;;;;;8.60;6.30;;;3.70;1.00;;;;;;5075853;28;20892;-69
2022/03/12 00:57:06;;;;;;;6.30;5.60;;;3.70;1.00;;;;;;5078057;28;20621;-63
2022/03/12 00:59:32;;;;;;;11.37;8.60;;;3.60;1.00;;;;;;5093838;28;20173;-66
2022/03/12 01:01:58;;;;;;;10.37;7.83;;;3.60;1.00;;;;;;5085298;28;20437;-62
2022/03/12 01:04:24;;;;;;;9.80;6.47;;;3.60;1.00;;;;;;5096974;28;20196;-62
2022/03/12 01:06:49;;;;;;;10.10;6.30;;;3.60;1.00;;;;;;5096639;28;20423;-65
2022/03/12 01:09:15;;;;;;;13.53;7.73;;;3.60;1.00;;;;;;5095298;28;20209;-69
2022/03/12 01:11:41;;;;;;;9.50;6.63;;;3.60;1.00;;;;;;5096982;28;20585;-69
2022/03/12 01:14:07;;;;;;;13.20;6.20;;;3.60;1.00;;;;;;5079643;28;20175;-62
2022/03/12 01:16:34;;;;;;;8.63;6.60;;;3.60;1.00;;;;;;5076094;28;20182;-69
2022/03/12 01:18:59;;;;;;;9.13;7.70;;;3.60;1.00;;;;;;5090133;28;20814;-68
2022/03/12 01:21:25;;;;;;;11.10;6.70;;;3.60;1.00;;;;;;5096460;28;20477;-63
2022/03/12 01:23:51;;;;;;;8.57;7.67;;;3.50;1.00;;;;;;5083021;28;20171;-62
2022/03/12 01:26:19;;;;;;;7.70;5.80;;;3.50;1.00;;;;;;5076298;28;20424;-63
2022/03/12 01:28:45;;;;;;;6.97;6.37;;;3.50;1.00;;;;;;5086848;28;20812;-68
2022/03/12 01:31:11;;;;;;;13.27;6.57;;;3.50;1.00;;;;;;5096304;28;20501;-62
2022/03/12 01:33:37;;;;;;;10.70;6.17;;;3.60;1.00;;;;;;5086186;28;20417;-69
2022/03/12 01:36:05;;;;;;;7.43;6.73;;;3.50;1.00;;;;;;5075759;28;20401;-68
2022/03/12 01:38:46;;;;;;;11.00;6.20;;;3.40;1.00;;;;;;5082998;28;20804;-69
2022/03/12 01:41:11;;;;;;;10.90;6.40;;;3.40;1.00;;;;;;5096032;28;20443;-67
2022/03/12 01:43:37;;;;;;;8.03;6.57;;;3.40;1.00;;;;;;5086884;28;20452;-62
2022/03/12 01:46:09;;;;;;;10.57;7.57;;;3.50;1.00;;;;;;5057941;28;20178;-62
2022/03/12 01:48:36;;;;;;;8.93;5.90;;;3.40;1.00;;;;;;5082025;28;20197;-63
2022/03/12 01:51:02;;;;;;;9.80;6.83;;;3.40;1.00;;;;;;5095822;28;20422;-66
2022/03/12 01:53:28;;;;;;;10.30;7.50;;;3.40;1.00;;;;;;5067167;28;20821;-68
2022/03/12 01:55:54;;;;;;;9.17;5.73;;;3.40;1.00;;;;;;5077510;28;21135;-69
2022/03/12 01:58:20;;;;;;;10.30;6.60;;;3.40;1.00;;;;;;5077790;28;20195;-62
2022/03/12 02:00:50;;;;;;;11.60;7.00;;;3.30;1.00;;;;;;5093974;28;20499;-63
2022/03/12 02:03:23;;;;;;;10.10;7.10;;;3.30;1.00;;;;;;5075481;28;20766;-68
2022/03/12 02:05:50;;;;;;;7.13;6.30;;;3.30;1.00;;;;;;5075829;28;20412;-68
2022/03/12 02:08:16;;;;;;;9.27;6.03;;;3.30;1.00;;;;;;5094634;28;20496;-62
2022/03/12 02:10:43;;;;;;;11.23;6.73;;;3.30;1.00;;;;;;5093926;28;20441;-68
2022/03/12 02:13:09;;;;;;;9.10;7.23;;;3.30;1.00;;;;;;5076083;28;20764;-62
2022/03/12 02:15:35;;;;;;;7.30;5.80;;;3.30;1.00;;;;;;5075248;28;20400;-68
2022/03/12 02:18:02;;;;;;;13.33;7.10;;;3.30;1.00;;;;;;5092547;28;20480;-69
2022/03/12 02:20:27;;;;;;;8.70;6.27;;;3.30;1.00;;;;;;5094601;28;20399;-62
2022/03/12 02:22:54;;;;;;;10.80;6.73;;;3.20;1.00;;;;;;5079574;28;20441;-62
2022/03/12 02:25:30;;;;;;;9.03;5.90;;;3.20;1.00;;;;;;5075240;28;20439;-69
2022/03/12 02:27:58;;;;;;;9.83;5.67;;;3.20;1.00;;;;;;5089789;28;20490;-65
2022/03/12 02:30:33;;;;;;;12.00;5.27;;;3.10;1.00;;;;;;5094041;28;20415;-63
2022/03/12 02:33:00;;;;;;;8.83;5.50;;;3.20;1.00;;;;;;5080012;28;20953;-62
2022/03/12 02:35:28;;;;;;;8.73;5.97;;;3.10;1.00;;;;;;5074858;28;20401;-68
2022/03/12 02:37:53;;;;;;;15.10;7.20;;;3.10;1.00;;;;;;5091864;28;20908;-62
2022/03/12 02:40:20;;;;;;;9.07;6.57;;;3.10;1.00;;;;;;5094167;28;20406;-69
2022/03/12 02:42:48;;;;;;;8.60;5.40;;;3.10;1.00;;;;;;5078625;28;20198;-69
2022/03/12 02:45:13;;;;;;;6.47;5.73;;;3.10;1.00;;;;;;5074082;28;20428;-63
2022/03/12 02:47:41;;;;;;;10.50;7.17;;;3.10;1.00;;;;;;5088286;28;21004;-68
2022/03/12 02:50:09;;;;;;;7.30;6.60;;;3.10;1.00;;;;;;5094140;28;20162;-62
2022/03/12 02:52:39;;;;;;;11.90;5.90;;;3.00;1.00;;;;;;5092923;28;20781;-68
2022/03/12 02:55:06;;;;;;;5.60;5.20;;;3.00;1.00;;;;;;5094822;28;20722;-63
2022/03/12 02:57:31;;;;;;;13.77;6.20;;;3.00;1.00;;;;;;5078584;28;20413;-67
2022/03/12 03:00:06;;;;;;;9.73;4.97;;;3.00;1.00;;;;;;5055610;28;20746;-63
2022/03/12 03:02:39;;;;;;;8.50;6.20;;;3.00;1.00;;;;;;5088657;28;20250;-69
2022/03/12 03:08:04;;;;;;;13.07;6.87;;;2.90;1.00;;;;;;5074169;28;20456;-63
2022/03/12 03:10:34;;;;;;;5.00;4.20;;;2.90;1.00;;;;;;5074009;28;20488;-69
2022/03/12 03:13:14;;;;;;;8.37;6.77;;;2.80;1.00;;;;;;5094407;28;20447;-62
2022/03/12 03:15:40;;;;;;;8.60;5.87;;;2.80;1.00;;;;;;5092643;28;20387;-63
2022/03/12 03:18:09;;;;;;;6.67;5.97;;;2.80;1.00;;;;;;5074034;28;20403;-62
2022/03/12 03:20:35;;;;;;;7.80;6.90;;;2.80;1.00;;;;;;5058830;28;20514;-65
2022/03/12 03:23:00;;;;;;;11.23;7.20;;;2.80;1.00;;;;;;5093735;28;20487;-69
2022/03/12 03:25:26;;;;;;;5.63;5.10;;;2.80;1.00;;;;;;5091589;28;20173;-62
2022/03/12 03:27:52;;;;;;;11.63;7.17;;;2.70;1.00;;;;;;5073731;28;20205;-68
2022/03/12 03:30:17;;;;;;;10.83;6.47;;;2.80;1.00;;;;;;5073287;28;20185;-63
2022/03/12 03:32:43;;;;;;;10.23;7.10;;;2.70;1.00;;;;;;5075850;28;20542;-69
2022/03/12 03:35:09;;;;;;;7.97;5.90;;;2.70;1.00;;;;;;5094250;28;20166;-69
2022/03/12 03:37:34;;;;;;;8.17;6.10;;;2.70;1.00;;;;;;5074829;28;20178;-68
2022/03/12 03:40:01;;;;;;;6.43;5.80;;;2.70;1.00;;;;;;5072677;28;20162;-65
2022/03/12 03:42:26;;;;;;;7.43;6.70;;;2.70;1.00;;;;;;5089471;28;20185;-68
2022/03/12 03:44:57;;;;;;;9.83;6.00;;;2.70;1.00;;;;;;5093975;28;20395;-69
2022/03/12 03:47:23;;;;;;;9.80;7.70;;;2.60;1.00;;;;;;5077619;28;20244;-69
2022/03/12 03:49:48;;;;;;;6.93;6.23;;;2.50;1.00;;;;;;5072460;28;20455;-63
2022/03/12 03:52:14;;;;;;;7.63;5.23;;;2.50;1.00;;;;;;5087043;28;20209;-63
2022/03/12 03:54:41;;;;;;;8.43;5.83;;;2.50;1.00;;;;;;5092513;28;20168;-63
2022/03/12 03:57:10;;;;;;;14.10;6.60;;;2.50;1.00;;;;;;5073199;28;20515;-69
2022/03/12 03:59:35;;;;;;;9.10;6.70;;;2.50;1.00;;;;;;5071749;28;20415;-69
2022/03/12 04:02:01;;;;;;;9.23;6.83;;;2.50;1.00;;;;;;5093094;28;20794;-63
2022/03/12 04:04:31;;;;;;;13.20;6.77;;;2.50;1.00;;;;;;5093512;28;20180;-69
2022/03/12 04:06:58;;;;;;;11.10;6.80;;;2.50;1.00;;;;;;5074484;28;20175;-62
2022/03/12 04:09:24;;;;;;;7.30;6.57;;;2.40;1.00;;;;;;5072524;28;20459;-62
2022/03/12 04:11:49;;;;;;;8.37;6.43;;;2.40;1.00;;;;;;5090191;28;20439;-69
2022/03/12 04:14:15;;;;;;;8.03;5.90;;;2.40;1.00;;;;;;5093351;28;20565;-62
2022/03/12 04:16:43;;;;;;;7.13;6.20;;;2.40;1.00;;;;;;5077509;28;20178;-69
2022/03/12 04:19:09;;;;;;;7.53;5.57;;;2.40;1.00;;;;;;5072531;28;20158;-62
2022/03/12 04:21:35;;;;;;;8.27;6.00;;;2.30;1.00;;;;;;5090402;28;20432;-69
2022/03/12 04:24:01;;;;;;;6.17;5.57;;;2.40;1.00;;;;;;5093567;28;20502;-63
2022/03/12 04:26:27;;;;;;;10.10;6.37;;;2.40;1.00;;;;;;5077090;28;20416;-68
2022/03/12 04:28:54;;;;;;;9.40;6.23;;;2.30;1.00;;;;;;5072226;28;20479;-68
2022/03/12 04:31:19;;;;;;;12.98;7.40;;;2.30;1.00;;;;;;5089664;28;20438;-69
2022/03/12 04:33:45;;;;;;;5.33;4.83;;;2.30;1.00;;;;;;5097012;28;20157;-68
2022/03/12 04:36:13;;;;;;;13.27;6.80;;;2.30;1.00;;;;;;5080350;28;20170;-67
2022/03/12 04:38:39;;;;;;;10.20;5.73;;;2.30;1.00;;;;;;5076356;28;20162;-68
2022/03/12 04:41:06;;;;;;;11.80;7.65;;;2.20;1.00;;;;;;5081474;28;20800;-63
2022/03/12 04:43:32;;;;;;;12.93;7.53;;;2.20;1.00;;;;;;5076989;28;20178;-69
2022/03/12 04:45:59;;;;;;;11.50;7.40;;;2.30;1.00;;;;;;5078168;28;20416;-62
2022/03/12 04:48:26;;;;;;;9.30;6.90;;;2.20;1.00;;;;;;5058533;28;20201;-68
2022/03/12 04:50:53;;;;;;;7.10;6.00;;;2.20;1.00;;;;;;5087485;28;20506;-62
2022/03/12 04:53:21;;;;;;;13.80;6.97;;;2.10;1.00;;;;;;5096564;28;20524;-62
2022/03/12 04:55:47;;;;;;;13.67;7.07;;;2.20;1.00;;;;;;5086564;28;20170;-63
2022/03/12 04:58:13;;;;;;;9.53;5.90;;;2.20;1.00;;;;;;5076769;28;20457;-69
2022/03/12 05:00:40;;;;;;;11.93;8.57;;;2.10;1.00;;;;;;5079740;28;21079;-69
2022/03/12 05:03:09;;;;;;;11.10;6.50;;;2.10;1.00;;;;;;5096873;28;20412;-62
2022/03/12 05:05:39;;;;;;;10.32;6.15;;;2.10;1.00;;;;;;5078786;28;20530;-62
2022/03/12 05:08:10;;;;;;;9.50;6.93;;;2.10;1.00;;;;;;5090511;28;20729;-69
2022/03/12 05:10:36;;;;;;;8.10;6.88;;;2.10;1.00;;;;;;5075380;28;20450;-68
2022/03/12 05:13:02;;;;;;;13.67;8.37;;;2.00;1.00;;;;;;5081107;28;20650;-69
2022/03/12 05:15:36;;;;;;;10.90;6.10;;;2.00;1.00;;;;;;5078641;28;20751;-62
2022/03/12 05:18:03;;;;;;;8.23;6.05;;;2.00;1.00;;;;;;5095020;28;20760;-69
2022/03/12 05:20:29;;;;;;;7.43;6.50;;;2.00;1.00;;;;;;5095912;28;20161;-69
2022/03/12 05:22:55;;;;;;;13.50;6.70;;;2.00;1.00;;;;;;5093145;28;20435;-63
2022/03/12 05:25:21;;;;;;;9.40;5.97;;;2.00;1.00;;;;;;5076153;28;20396;-69
2022/03/12 05:27:48;;;;;;;8.37;7.50;;;2.00;1.00;;;;;;5077398;28;20399;-63
2022/03/12 05:30:14;;;;;;;16.30;7.23;;;2.00;1.00;;;;;;5095724;28;20736;-69
2022/03/12 05:32:40;;;;;;;12.30;7.27;;;2.00;1.00;;;;;;5091363;28;20432;-64
2022/03/12 05:35:07;;;;;;;9.53;7.30;;;1.90;1.00;;;;;;5076154;28;20458;-62
2022/03/12 05:37:33;;;;;;;9.70;7.10;;;1.90;1.00;;;;;;5078067;28;20773;-62
2022/03/12 05:39:59;;;;;;;6.17;5.57;;;1.90;1.00;;;;;;5095582;28;20399;-69
2022/03/12 05:42:26;;;;;;;7.13;5.70;;;1.80;1.00;;;;;;5093762;28;20420;-69
2022/03/12 05:44:54;;;;;;;8.73;6.43;;;1.80;1.00;;;;;;5075932;28;20190;-63
2022/03/12 05:47:23;;;;;;;10.60;5.73;;;1.80;1.00;;;;;;5078078;28;20172;-64
2022/03/12 05:49:49;;;;;;;8.35;6.82;;;1.80;1.00;;;;;;5074246;28;20479;-69
2022/03/12 05:52:17;;;;;;;8.30;6.32;;;1.80;1.00;;;;;;5076818;28;20198;-63
2022/03/12 05:54:43;;;;;;;12.63;7.97;;;1.80;1.00;;;;;;5095583;28;20213;-68
2022/03/12 05:57:09;;;;;;;9.63;6.60;;;1.80;1.00;;;;;;5075606;28;20178;-69
2022/03/12 05:59:35;;;;;;;11.30;6.90;;;1.80;1.00;;;;;;5074888;28;20404;-62
2022/03/12 06:02:00;;;;;;;9.07;6.70;;;1.80;1.00;;;;;;5075680;28;20243;-68
2022/03/12 06:04:27;;;;;;;7.83;6.90;;;1.80;1.00;;;;;;5095797;28;20252;-63
2022/03/12 06:06:54;;;;;;;6.70;6.00;;;1.80;1.00;;;;;;5078023;28;20178;-68
2022/03/12 06:09:20;;;;;;;10.17;5.47;;;1.80;1.00;;;;;;5074501;28;20577;-62
2022/03/12 06:11:47;;;;;;;7.00;6.50;;;1.70;1.00;;;;;;5090210;28;20916;-62
2022/03/12 06:14:16;;;;;;;8.03;5.93;;;1.70;1.00;;;;;;5095744;28;20399;-69
2022/03/12 06:16:47;;;;;;;11.73;8.00;;;1.70;1.00;;;;;;5081698;28;20408;-62
2022/03/12 06:19:15;;;;;;;6.20;5.60;;;1.80;1.00;;;;;;5074282;28;20407;-63
2022/03/12 06:21:41;;;;;;;10.93;7.30;;;1.80;1.00;;;;;;5087862;28;20962;-63
2022/03/12 06:24:07;;;;;;;10.30;7.40;;;1.80;1.00;;;;;;5095628;28;20404;-69
2022/03/12 06:26:35;;;;;;;7.00;5.53;;;1.80;1.00;;;;;;5083348;28;20427;-63
2022/03/12 06:29:03;;;;;;;7.73;6.90;;;1.90;1.00;;;;;;5074193;28;20528;-69
2022/03/12 06:31:31;;;;;;;10.88;7.38;;;1.90;1.00;;;;;;5084618;28;20442;-63
2022/03/12 06:33:57;;;;;;;14.47;7.80;;;1.90;1.00;;;;;;5095237;28;20170;-63
2022/03/12 06:36:24;;;;;;;12.85;7.30;;;1.90;1.00;;;;;;5086534;28;20405;-69
2022/03/12 06:38:50;;;;;;;8.75;6.47;;;1.90;1.00;;;;;;5056383;28;20356;-69
2022/03/12 06:41:17;;;;;;;11.10;6.10;;;1.90;1.00;;;;;;5081006;28;20661;-63
2022/03/12 06:43:43;;;;;;;9.10;6.95;;;2.00;1.00;;;;;;5093944;28;20431;-63
2022/03/12 06:46:13;;;;;;;8.00;7.10;;;2.00;1.00;;;;;;5085414;28;20179;-69
2022/03/12 06:48:39;;;;;;;6.70;5.13;;;2.00;1.00;;;;;;5073634;28;20233;-62
2022/03/12 06:51:06;;;;;;;20.50;8.47;;;2.10;1.00;;;;;;5074443;28;20432;-68
2022/03/12 06:53:32;;;;;;;10.03;6.47;;;2.20;1.00;;;;;;5073920;28;20412;-69
2022/03/12 06:55:58;;;;;;;11.40;6.70;;;2.20;1.00;;;;;;5074615;28;20401;-68
2022/03/12 06:58:25;;;;;;;12.25;6.07;;;2.20;1.00;;;;;;5068617;28;20420;-63
2022/03/12 07:00:50;;;;;;;11.47;7.07;;;2.20;1.00;;;;;;5078893;28;20643;-64
2022/03/12 07:03:16;;;;;;;7.63;6.03;;;2.20;1.00;;;;;;5074346;28;20397;-72
2022/03/12 07:05:42;;;;;;;8.90;5.97;;;2.20;1.00;;;;;;5074342;28;20564;-63
2022/03/12 07:08:07;;;;;;;8.33;6.00;;;2.40;1.00;;;;;;5074130;28;20742;-72
2022/03/12 07:10:33;;;;;;;11.80;6.87;;;2.40;1.00;;;;;;5073099;28;20161;-63
2022/03/12 07:12:59;;;;;;;13.83;6.60;;;2.40;1.00;;;;;;5070694;28;20185;-63
2022/03/12 07:15:25;;;;;;;9.97;7.23;;;2.50;1.00;;;;;;5094356;28;20392;-71
2022/03/12 07:17:51;;;;;;;7.77;5.03;;;2.50;1.00;;;;;;5092320;28;20884;-67
2022/03/12 07:20:17;;;;;;;9.67;6.30;;;2.60;1.00;;;;;;5092801;28;20475;-62
2022/03/12 07:22:44;;;;;;;12.60;7.10;;;2.60;1.00;;;;;;5086895;28;20197;-69
2022/03/12 07:25:12;;;;;;;12.30;7.30;;;2.70;1.00;;;;;;5074155;28;20390;-67
2022/03/12 07:27:38;;;;;;;11.23;7.10;;;2.70;1.00;;;;;;5074805;28;20909;-68
2022/03/12 07:30:05;;;;;;;8.40;7.20;;;2.70;1.00;;;;;;5072980;28;20388;-64
2022/03/12 07:32:31;;;;;;;9.10;7.50;;;2.70;1.00;;;;;;5081520;28;20469;-62
2022/03/12 07:34:57;;;;;;;10.90;6.10;;;2.80;1.00;;;;;;5094310;28;20388;-62
2022/03/12 07:37:23;;;;;;;6.40;4.57;;;2.80;1.00;;;;;;5093162;28;20418;-64
2022/03/12 07:39:49;;;;;;;11.43;7.50;;;2.80;1.00;;;;;;5088597;28;20181;-68
2022/03/12 07:42:14;;;;;;;10.80;7.13;;;2.90;1.00;;;;;;5074181;28;20436;-62
2022/03/12 07:44:40;;;;;;;10.63;7.40;;;2.90;1.00;;;;;;5079844;28;20181;-67
2022/03/12 07:47:07;;;;;;;9.20;6.60;;;3.00;1.00;;;;;;5076152;28;20190;-68
2022/03/12 07:49:34;;;;;;;9.17;7.07;;;3.00;1.00;;;;;;5092674;28;20458;-69
2022/03/12 07:51:59;;;;;;;9.37;6.23;;;3.10;1.00;;;;;;5091811;28;20833;-63
2022/03/12 07:54:25;;;;;;;7.77;6.80;;;3.20;1.00;;;;;;5093252;28;20416;-62
2022/03/12 07:56:51;;;;;;;7.97;7.13;;;3.30;1.00;;;;;;5093174;28;20161;-62
2022/03/12 07:59:17;;;;;;;15.80;7.70;;;3.30;1.00;;;;;;5090249;28;20423;-68
2022/03/12 08:01:43;;;;;;;8.10;5.93;;;3.40;1.00;;;;;;5078517;28;20194;-68
2022/03/12 08:04:08;;;;;;;12.60;7.93;;;3.40;1.00;;;;;;5057454;28;20446;-66
2022/03/12 08:06:34;;;;;;;6.80;5.80;;;3.50;1.00;;;;;;5085254;28;20177;-63
2022/03/12 08:09:00;;;;;;;7.17;6.53;;;3.60;1.00;;;;;;5092729;28;20208;-68
2022/03/12 08:11:29;;;;;;;7.57;6.20;;;3.70;1.00;;;;;;5092620;28;20185;-68
2022/03/12 08:14:14;;;;;;;7.40;6.00;;;3.70;1.00;;;;;;5093439;28;20517;-68
2022/03/12 08:16:40;;;;;;;7.87;5.80;;;3.80;1.00;;;;;;5079843;28;20424;-62
2022/03/12 08:19:08;;;;;;;13.27;6.87;;;3.90;1.00;;;;;;5072489;28;20405;-63
2022/03/12 08:21:35;;;;;;;12.33;6.90;;;3.90;1.00;;;;;;5057007;28;20256;-62
2022/03/12 08:24:02;;;;;;;9.27;6.10;;;4.00;1.00;;;;;;5073387;28;20435;-68
2022/03/12 08:26:29;;;;;;;9.53;6.10;;;4.10;1.00;;;;;;5086655;28;20511;-68
2022/03/12 08:28:54;;;;;;;6.73;6.10;;;4.20;1.00;;;;;;5092556;28;20454;-63
2022/03/12 08:31:21;;;;;;;10.70;5.80;;;4.30;1.00;;;;;;5092859;28;20427;-69
2022/03/12 08:33:47;;;;;;;7.70;5.40;;;4.30;1.00;;;;;;5092719;28;20398;-69
2022/03/12 08:36:14;;;;;;;11.60;6.93;;;4.40;1.00;;;;;;5088603;28;20502;-63
2022/03/12 08:38:40;;;;;;;8.60;6.87;;;4.50;1.00;;;;;;5092542;28;20888;-63
2022/03/12 08:41:08;;;;;;;7.73;5.77;;;4.50;1.00;;;;;;5093265;28;20514;-68
2022/03/12 08:43:36;;;;;;;8.70;6.43;;;4.70;1.00;;;;;;5093228;28;20760;-68
2022/03/12 08:46:05;;;;;;;10.50;7.47;;;4.70;1.00;;;;;;5093274;28;20391;-66
2022/03/12 08:48:31;;;;;;;15.10;7.47;;;4.80;1.00;;;;;;5092173;28;20472;-65
2022/03/12 08:50:57;;;;;;;9.30;6.83;;;5.10;1.00;;;;;;5092042;28;20439;-65
2022/03/12 08:53:22;;;;;;;7.67;6.00;;;5.20;1.00;;;;;;5092707;28;20880;-69
2022/03/12 08:55:48;;;;;;;7.53;6.53;;;5.30;1.00;;;;;;5093170;28;20167;-63
2022/03/12 08:58:14;;;;;;;9.37;6.63;;;5.30;1.00;;;;;;5093002;28;20173;-68
2022/03/12 09:00:42;;;;;;;8.77;5.77;;;5.40;1.00;;;;;;5092000;28;20418;-68
2022/03/12 09:03:11;;;;;;;6.93;6.23;;;5.50;1.00;;;;;;5087496;28;20964;-63
2022/03/12 09:05:38;;;;;;;9.43;6.73;;;5.70;1.00;;;;;;5072894;28;20942;-61
2022/03/12 09:08:04;;;;;;;6.77;6.07;;;5.80;1.00;;;;;;5072684;28;20452;-63
2022/03/12 09:10:30;;;;;;;10.83;6.00;;;6.00;1.00;;;;;;5071671;28;20892;-69
2022/03/12 09:12:55;;;;;;;12.23;7.50;;;6.10;1.00;;;;;;5072139;28;20424;-63
2022/03/12 09:15:24;;;;;;;9.97;6.80;;;6.10;1.00;;;;;;5072884;28;20261;-61
2022/03/12 09:17:50;;;;;;;8.63;6.80;;;6.30;1.00;;;;;;5086893;28;20549;-61
2022/03/12 09:20:16;;;;;;;8.40;6.37;;;6.50;1.00;;;;;;5095778;28;20415;-67
2022/03/12 09:22:42;;;;;;;9.87;6.43;;;6.90;1.00;;;;;;5096669;28;20426;-61
2022/03/12 09:25:12;;;;;;;8.87;6.90;;;7.10;1.00;;;;;;5096789;28;20168;-67
2022/03/12 09:27:39;;;;;;;9.53;7.03;;;7.40;1.00;;;;;;5096802;28;20170;-67
2022/03/12 09:30:06;;;;;;;11.33;6.93;;;7.70;1.00;;;;;;5095370;28;20407;-61
2022/03/12 09:32:32;;;;;;;8.70;6.20;;;8.00;1.00;;;;;;5095392;28;20784;-69
2022/03/12 09:34:57;;;;;;;11.33;7.90;;;8.40;1.00;;;;;;5096494;28;20380;-67
2022/03/12 09:37:23;;;;;;;8.30;6.20;;;8.60;1.00;;;;;;5096280;28;20710;-61
2022/03/12 09:39:49;;;;;;;7.37;6.43;;;8.80;1.00;;;;;;5095425;28;20256;-61
2022/03/12 09:42:14;;;;;;;7.90;6.10;;;9.00;1.00;;;;;;5096311;28;20221;-63
2022/03/12 09:44:40;;;;;;;13.03;7.93;;;9.20;1.00;;;;;;5091573;28;20527;-69
2022/03/12 09:47:06;;;;;;;8.83;7.93;;;9.30;1.00;;;;;;5075988;28;20208;-63
2022/03/12 09:49:35;;;;;;;9.00;7.40;;;9.50;1.00;;;;;;5075029;28;20196;-69
2022/03/12 09:52:01;;;;;;;8.83;7.37;;;9.90;1.00;;;;;;5057155;28;21050;-70
2022/03/12 09:54:28;;;;;;;14.63;7.60;;;10.20;1.00;;;;;;5075785;28;20396;-63
2022/03/12 09:56:54;;;;;;;7.93;6.50;;;10.60;1.00;;;;;;5075711;28;20404;-63
2022/03/12 09:59:20;;;;;;;12.67;8.20;;;11.00;1.00;;;;;;5085186;28;20788;-69
2022/03/12 10:01:46;;;;;;;12.27;7.20;;;11.20;1.00;;;;;;5095939;28;20498;-65
2022/03/12 10:04:11;;;;;;;10.73;6.63;;;11.30;1.00;;;;;;5095787;28;20507;-69
2022/03/12 10:06:40;;;;;;;8.50;6.67;;;11.20;1.00;;;;;;5095818;28;20675;-70
2022/03/12 10:09:08;;;;;;;9.73;7.57;;;11.20;1.00;;;;;;5094774;28;20189;-63
2022/03/12 10:11:35;;;;;;;10.17;6.40;;;11.00;1.00;;;;;;5095024;28;20496;-63
2022/03/12 10:14:00;;;;;;;8.23;6.70;;;11.00;1.00;;;;;;5079018;28;20420;-63
2022/03/12 10:16:29;;;;;;;11.63;7.20;;;11.20;1.00;;;;;;5075206;28;20776;-65
2022/03/12 10:18:55;;;;;;;11.03;7.50;;;11.30;1.00;;;;;;5085492;28;20169;-70
2022/03/12 10:21:22;;;;;;;6.43;5.73;;;11.50;1.00;;;;;;5092250;28;20785;-63
2022/03/12 10:23:48;;;;;;;10.50;7.27;;;12.00;1.00;;;;;;5074919;28;20428;-63
2022/03/12 10:26:14;;;;;;;9.03;6.43;;;12.20;1.00;;;;;;5076534;28;20420;-63
2022/03/12 10:28:40;;;;;;;8.43;7.50;;;12.40;1.00;;;;;;5073563;28;21029;-70
2022/03/12 10:31:09;;;;;;;10.47;6.70;;;12.60;1.00;;;;;;5074485;28;20959;-64
2022/03/12 10:33:36;;;;;;;12.50;8.00;;;12.70;1.00;;;;;;5079994;28;20387;-70
2022/03/12 10:36:10;;;;;;;10.00;6.70;;;12.80;1.00;;;;;;5095356;28;20472;-63
2022/03/12 10:38:44;;;;;;;7.33;6.73;;;12.60;1.00;;;;;;5093342;28;20497;-64
2022/03/12 10:41:11;;;;;;;10.97;6.40;;;12.40;1.00;;;;;;5095039;28;20502;-70
2022/03/12 10:43:49;;;;;;;13.20;7.73;;;12.40;1.00;;;;;;5090775;28;21065;-72
2022/03/12 10:46:25;;;;;;;10.43;7.90;;;12.60;1.00;;;;;;5093027;28;20384;-63
2022/03/12 10:48:56;;;;;;;8.93;7.87;;;12.40;1.00;;;;;;5073385;28;20440;-70
2022/03/12 10:51:38;;;;;;;11.23;7.00;;;12.70;1.00;;;;;;5058683;28;20419;-70
2022/03/12 10:54:12;;;;;;;6.33;5.77;;;13.00;1.00;;;;;;5094962;28;20392;-65
2022/03/12 10:56:43;;;;;;;9.55;6.63;;;13.60;1.00;;;;;;5090097;28;20814;-63
2022/03/12 10:59:14;;;;;;;9.80;8.00;;;13.80;1.00;;;;;;5093844;28;20169;-69
2022/03/12 11:01:55;;;;;;;9.00;7.57;;;13.80;1.00;;;;;;5090759;28;20414;-71
2022/03/12 11:04:30;;;;;;;9.07;6.40;;;13.40;1.00;;;;;;5074408;28;20575;-66
2022/03/12 11:06:58;;;;;;;16.27;7.70;;;13.00;1.00;;;;;;5079168;28;20477;-64
2022/03/12 11:09:34;;;;;;;7.27;5.90;;;12.90;1.00;;;;;;5093525;28;20421;-63
2022/03/12 11:12:00;;;;;;;8.27;7.23;;;13.00;1.00;;;;;;5088402;28;20427;-70
2022/03/12 11:14:31;;;;;;;11.87;6.93;;;13.10;1.00;;;;;;5094550;28;20404;-63
2022/03/12 11:16:58;;;;;;;8.93;6.50;;;13.00;1.00;;;;;;5090723;28;20412;-71
2022/03/12 11:19:39;;;;;;;8.97;6.80;;;13.10;1.00;;;;;;5093366;28;20412;-64
2022/03/12 11:22:10;;;;;;;10.80;7.73;;;12.80;1.00;;;;;;5085803;28;20485;-63
2022/03/12 11:24:49;;;;;;;10.53;7.40;;;12.40;1.00;;;;;;5055908;28;20498;-71
2022/03/12 11:27:27;;;;;;;12.17;7.63;;;12.10;1.00;;;;;;5083752;28;20409;-65
2022/03/12 11:30:08;;;;;;;9.10;7.30;;;11.60;1.00;;;;;;5073024;28;20459;-71
2022/03/12 11:32:36;;;;;;;10.40;7.00;;;11.50;1.00;;;;;;5088832;28;20420;-63
2022/03/12 11:35:06;;;;;;;9.67;7.33;;;11.50;1.00;;;;;;5094198;28;20399;-71
2022/03/12 11:37:36;;;;;;;9.10;6.80;;;11.60;1.00;;;;;;5075317;28;20386;-64
2022/03/12 11:40:04;;;;;;;10.67;8.13;;;11.90;1.00;;;;;;5083747;28;20412;-64
2022/03/12 11:42:35;;;;;;;11.60;7.23;;;12.00;1.00;;;;;;5086946;28;20867;-70
2022/03/12 11:45:05;;;;;;;9.83;6.83;;;12.00;1.00;;;;;;5094196;28;20410;-71
2022/03/12 11:47:38;;;;;;;9.27;7.30;;;12.10;1.00;;;;;;5080294;28;20387;-64
2022/03/12 11:50:08;;;;;;;8.97;6.73;;;12.20;1.00;;;;;;5072656;28;20517;-63
2022/03/12 11:52:36;;;;;;;11.07;7.97;;;12.40;1.00;;;;;;5068323;28;20418;-70
2022/03/12 11:55:05;;;;;;;10.70;7.37;;;12.30;1.00;;;;;;5076307;28;20394;-71
2022/03/12 11:57:34;;;;;;;13.13;8.23;;;12.50;1.00;;;;;;5085184;28;20446;-64
2022/03/12 12:00:02;;;;;;;9.33;7.23;;;12.60;1.00;;;;;;5092821;28;20373;-63
2022/03/12 12:02:29;;;;;;;13.90;7.27;;;12.90;1.00;;;;;;5082232;28;20461;-64
2022/03/12 12:04:58;;;;;;;11.80;7.57;;;13.10;1.00;;;;;;5055560;28;20405;-70
2022/03/12 12:07:25;;;;;;;10.20;7.17;;;13.50;1.00;;;;;;5078834;28;20834;-64
2022/03/12 12:09:51;;;;;;;10.07;8.03;;;13.70;1.00;;;;;;5054498;28;20435;-70
2022/03/12 12:12:22;;;;;;;11.57;7.37;;;13.90;1.00;;;;;;5081724;28;20435;-71
2022/03/12 12:14:47;;;;;;;9.30;7.33;;;14.00;1.00;;;;;;5093476;28;20403;-63
2022/03/12 12:17:13;;;;;;;11.23;8.93;;;14.20;1.00;;;;;;5084782;28;20405;-70
2022/03/12 12:19:39;;;;;;;11.57;7.50;;;14.80;1.00;;;;;;5054592;28;20184;-68
2022/03/12 12:22:09;;;;;;;12.23;9.57;;;15.20;1.00;;;;;;5075055;28;20238;-71
2022/03/12 12:24:39;;;;;;;11.17;7.40;;;15.30;1.00;;;;;;5073276;28;20182;-64
2022/03/12 12:27:10;;;;;;;11.87;8.33;;;15.60;1.00;;;;;;5081659;28;20966;-72
2022/03/12 12:29:55;;;;;;;10.53;7.53;;;16.20;1.00;;;;;;5092432;28;20959;-71
2022/03/12 12:32:22;;;;;;;10.83;8.00;;;16.90;1.00;;;;;;5074523;28;20454;-70
2022/03/12 12:35:03;;;;;;;7.50;6.83;;;17.40;1.00;;;;;;5092968;28;20388;-72
2022/03/12 12:37:52;;;;;;;10.93;7.33;;;17.70;1.00;;;;;;5085668;28;20494;-64
2022/03/12 12:40:27;;;;;;;10.53;7.37;;;17.80;1.00;;;;;;5074317;28;20403;-71
2022/03/12 12:42:57;;;;;;;12.97;7.70;;;17.80;1.00;;;;;;5089349;28;20435;-71
2022/03/12 12:45:26;;;;;;;11.10;6.90;;;17.60;1.00;;;;;;5092615;28;20908;-71
2022/03/12 12:48:14;;;;;;;9.37;6.80;;;17.90;1.00;;;;;;5078166;28;20442;-72
2022/03/12 12:50:40;;;;;;;10.90;7.50;;;18.00;1.00;;;;;;5072154;28;20388;-67
2022/03/12 12:53:18;;;;;;;11.93;7.50;;;18.00;1.00;;;;;;5090224;28;20434;-64
2022/03/12 12:55:45;;;;;;;8.37;7.37;;;18.40;1.00;;;;;;5097222;28;20423;-71
2022/03/12 12:58:12;;;;;;;8.63;7.67;;;18.90;1.00;;;;;;5080412;28;20416;-65
2022/03/12 13:00:40;;;;;;;7.63;6.90;;;19.20;1.00;;;;;;5076024;28;20954;-64
2022/03/12 13:03:43;;;;;;;8.33;6.37;;;18.80;1.00;;;;;;5087593;28;20426;-71
2022/03/12 13:06:11;;;;;;;9.27;7.25;;;19.00;1.00;;;;;;5075545;28;20485;-71